sensor_id;sensor_type;location;lat;lon;timestamp;temperature;humidity
31038;DHT22;17702;47.590;7.666;2023-06-10T00:00:12;19.40;99.90
31038;DHT22;17702;47.590;7.666;2023-06-10T00:02:40;19.40;99.90
31038;DHT22;17702;47.590;7.666;2023-06-10T00:05:06;19.30;99.90
31038;DHT22;17702;47.590;7.666;2023-06-10T00:07:33;19.40;99.90
31038;DHT22;17702;47.590;7.666;2023-06-10T00:09:59;19.30;99.90
31038;DHT22;17702;47.590;7.666;2023-06-10T00:12:25;19.30;99.90
31038;DHT22;17702;47.590;7.666;2023-06-10T00:14:51;19.30;99.90
31038;DHT22;17702;47.590;7.666;2023-06-10T00:17:18;19.20;99.90
31038;DHT22;17702;47.590;7.666;2023-06-10T00:19:44;19.20;99.90
31038;DHT22;17702;47.590;7.666;2023-06-10T00:22:12;19.20;99.90
31038;DHT22;17702;47.590;7.666;2023-06-10T00:24:37;19.20;99.90
31038;DHT22;17702;47.590;7.666;2023-06-10T00:27:04;19.20;99.90
31038;DHT22;17702;47.590;7.666;2023-06-10T00:29:30;19.10;99.90
31038;DHT22;17702;47.590;7.666;2023-06-10T00:31:56;19.10;99.90
31038;DHT22;17702;47.590;7.666;2023-06-10T00:34:23;19.10;99.90
31038;DHT22;17702;47.590;7.666;2023-06-10T00:36:48;19.10;99.90
31038;DHT22;17702;47.590;7.666;2023-06-10T00:39:14;19.10;99.90
31038;DHT22;17702;47.590;7.666;2023-06-10T00:41:40;19.10;99.90
31038;DHT22;17702;47.590;7.666;2023-06-10T00:44:05;19.10;99.90
31038;DHT22;17702;47.590;7.666;2023-06-10T00:46:31;19.10;99.90
31038;DHT22;17702;47.590;7.666;2023-06-10T00:48:58;19.10;99.90
31038;DHT22;17702;47.590;7.666;2023-06-10T00:51:23;19.10;99.90
31038;DHT22;17702;47.590;7.666;2023-06-10T00:53:51;19.00;99.90
31038;DHT22;17702;47.590;7.666;2023-06-10T00:56:17;19.00;99.90
31038;DHT22;17702;47.590;7.666;2023-06-10T00:58:43;18.90;99.90
31038;DHT22;17702;47.590;7.666;2023-06-10T01:01:09;18.90;99.90
31038;DHT22;17702;47.590;7.666;2023-06-10T01:03:36;18.90;99.90
31038;DHT22;17702;47.590;7.666;2023-06-10T01:12:05;18.90;99.90
31038;DHT22;17702;47.590;7.666;2023-06-10T01:14:35;18.80;99.90
31038;DHT22;17702;47.590;7.666;2023-06-10T01:17:01;18.70;99.90
31038;DHT22;17702;47.590;7.666;2023-06-10T01:19:28;18.70;99.90
31038;DHT22;17702;47.590;7.666;2023-06-10T01:21:56;18.70;99.90
31038;DHT22;17702;47.590;7.666;2023-06-10T01:24:28;18.60;99.90
31038;DHT22;17702;47.590;7.666;2023-06-10T01:26:56;18.60;99.90
31038;DHT22;17702;47.590;7.666;2023-06-10T01:29:37;18.60;99.90
31038;DHT22;17702;47.590;7.666;2023-06-10T01:32:27;18.50;99.90
31038;DHT22;17702;47.590;7.666;2023-06-10T01:34:55;18.50;99.90
31038;DHT22;17702;47.590;7.666;2023-06-10T01:37:24;18.50;99.90
31038;DHT22;17702;47.590;7.666;2023-06-10T01:39:51;18.40;99.90
31038;DHT22;17702;47.590;7.666;2023-06-10T01:42:17;18.40;99.90
31038;DHT22;17702;47.590;7.666;2023-06-10T01:44:43;18.30;99.90
31038;DHT22;17702;47.590;7.666;2023-06-10T01:47:09;18.30;99.90
31038;DHT22;17702;47.590;7.666;2023-06-10T01:49:35;18.30;99.90
31038;DHT22;17702;47.590;7.666;2023-06-10T01:52:00;18.30;99.90
31038;DHT22;17702;47.590;7.666;2023-06-10T01:54:26;18.20;99.90
31038;DHT22;17702;47.590;7.666;2023-06-10T01:56:52;18.20;99.90
31038;DHT22;17702;47.590;7.666;2023-06-10T01:59:18;18.20;99.90
31038;DHT22;17702;47.590;7.666;2023-06-10T02:01:43;18.10;99.90
31038;DHT22;17702;47.590;7.666;2023-06-10T02:04:09;18.10;99.90
31038;DHT22;17702;47.590;7.666;2023-06-10T02:06:34;18.10;99.90
31038;DHT22;17702;47.590;7.666;2023-06-10T02:09:01;18.10;99.90
31038;DHT22;17702;47.590;7.666;2023-06-10T02:11:26;18.00;99.90
31038;DHT22;17702;47.590;7.666;2023-06-10T02:13:52;18.00;99.90
31038;DHT22;17702;47.590;7.666;2023-06-10T02:16:18;17.90;99.90
31038;DHT22;17702;47.590;7.666;2023-06-10T02:18:44;17.90;99.90
31038;DHT22;17702;47.590;7.666;2023-06-10T02:21:10;17.80;99.90
31038;DHT22;17702;47.590;7.666;2023-06-10T02:23:35;17.80;99.90
31038;DHT22;17702;47.590;7.666;2023-06-10T02:26:01;17.70;99.90
31038;DHT22;17702;47.590;7.666;2023-06-10T02:28:27;17.60;99.90
31038;DHT22;17702;47.590;7.666;2023-06-10T02:30:53;17.70;99.90
31038;DHT22;17702;47.590;7.666;2023-06-10T02:33:19;17.60;99.90
31038;DHT22;17702;47.590;7.666;2023-06-10T02:35:45;17.60;99.90
31038;DHT22;17702;47.590;7.666;2023-06-10T02:38:11;17.50;99.90
31038;DHT22;17702;47.590;7.666;2023-06-10T02:40:36;17.50;99.90
31038;DHT22;17702;47.590;7.666;2023-06-10T02:43:02;17.50;99.90
31038;DHT22;17702;47.590;7.666;2023-06-10T02:45:28;17.50;99.90
31038;DHT22;17702;47.590;7.666;2023-06-10T02:47:53;17.50;99.90
31038;DHT22;17702;47.590;7.666;2023-06-10T02:50:19;17.60;99.90
31038;DHT22;17702;47.590;7.666;2023-06-10T02:52:45;17.50;99.90
31038;DHT22;17702;47.590;7.666;2023-06-10T02:55:10;17.50;99.90
31038;DHT22;17702;47.590;7.666;2023-06-10T02:57:36;17.50;99.90
31038;DHT22;17702;47.590;7.666;2023-06-10T03:00:02;17.50;99.90
31038;DHT22;17702;47.590;7.666;2023-06-10T03:02:34;17.40;99.90
31038;DHT22;17702;47.590;7.666;2023-06-10T03:05:02;17.30;99.90
31038;DHT22;17702;47.590;7.666;2023-06-10T03:07:28;17.30;99.90
31038;DHT22;17702;47.590;7.666;2023-06-10T03:09:54;17.20;99.90
31038;DHT22;17702;47.590;7.666;2023-06-10T03:12:19;17.20;99.90
31038;DHT22;17702;47.590;7.666;2023-06-10T03:14:45;17.30;99.90
31038;DHT22;17702;47.590;7.666;2023-06-10T03:17:11;17.30;99.90
31038;DHT22;17702;47.590;7.666;2023-06-10T03:19:36;17.20;99.90
31038;DHT22;17702;47.590;7.666;2023-06-10T03:22:13;17.20;99.90
31038;DHT22;17702;47.590;7.666;2023-06-10T03:24:38;17.10;99.90
31038;DHT22;17702;47.590;7.666;2023-06-10T03:27:09;17.20;99.90
31038;DHT22;17702;47.590;7.666;2023-06-10T03:29:35;17.20;99.90
31038;DHT22;17702;47.590;7.666;2023-06-10T03:32:01;17.20;99.90
31038;DHT22;17702;47.590;7.666;2023-06-10T03:34:27;17.10;99.90
31038;DHT22;17702;47.590;7.666;2023-06-10T03:36:52;17.10;99.90
31038;DHT22;17702;47.590;7.666;2023-06-10T03:39:18;17.10;99.90
31038;DHT22;17702;47.590;7.666;2023-06-10T03:41:44;17.10;99.90
31038;DHT22;17702;47.590;7.666;2023-06-10T03:44:09;17.10;99.90
31038;DHT22;17702;47.590;7.666;2023-06-10T03:46:35;17.10;99.90
31038;DHT22;17702;47.590;7.666;2023-06-10T03:49:01;17.10;99.90
31038;DHT22;17702;47.590;7.666;2023-06-10T03:51:27;16.90;99.90
31038;DHT22;17702;47.590;7.666;2023-06-10T03:53:52;16.90;99.90
31038;DHT22;17702;47.590;7.666;2023-06-10T03:56:18;16.90;99.90
31038;DHT22;17702;47.590;7.666;2023-06-10T03:58:44;16.90;99.90
31038;DHT22;17702;47.590;7.666;2023-06-10T04:01:10;16.90;99.90
31038;DHT22;17702;47.590;7.666;2023-06-10T04:03:36;17.00;99.90
31038;DHT22;17702;47.590;7.666;2023-06-10T04:06:01;17.00;99.90
31038;DHT22;17702;47.590;7.666;2023-06-10T04:08:28;16.90;99.90
31038;DHT22;17702;47.590;7.666;2023-06-10T04:10:53;16.90;99.90
31038;DHT22;17702;47.590;7.666;2023-06-10T04:13:19;16.90;99.90
31038;DHT22;17702;47.590;7.666;2023-06-10T04:15:45;16.90;99.90
31038;DHT22;17702;47.590;7.666;2023-06-10T04:18:10;16.90;99.90
31038;DHT22;17702;47.590;7.666;2023-06-10T04:20:36;16.90;99.90
31038;DHT22;17702;47.590;7.666;2023-06-10T04:23:02;16.80;99.90
31038;DHT22;17702;47.590;7.666;2023-06-10T04:25:27;16.90;99.90
31038;DHT22;17702;47.590;7.666;2023-06-10T04:27:54;16.90;99.90
31038;DHT22;17702;47.590;7.666;2023-06-10T04:30:19;16.90;99.90
31038;DHT22;17702;47.590;7.666;2023-06-10T04:32:45;16.90;99.90
31038;DHT22;17702;47.590;7.666;2023-06-10T04:35:13;16.90;99.90
31038;DHT22;17702;47.590;7.666;2023-06-10T04:37:39;16.90;99.90
31038;DHT22;17702;47.590;7.666;2023-06-10T04:40:07;16.90;99.90
31038;DHT22;17702;47.590;7.666;2023-06-10T04:42:33;16.90;99.90
31038;DHT22;17702;47.590;7.666;2023-06-10T04:44:59;16.80;99.90
31038;DHT22;17702;47.590;7.666;2023-06-10T04:47:25;16.90;99.90
31038;DHT22;17702;47.590;7.666;2023-06-10T04:49:52;16.90;99.90
31038;DHT22;17702;47.590;7.666;2023-06-10T04:52:17;16.90;99.90
31038;DHT22;17702;47.590;7.666;2023-06-10T04:54:43;17.00;99.90
31038;DHT22;17702;47.590;7.666;2023-06-10T04:57:09;17.10;99.90
31038;DHT22;17702;47.590;7.666;2023-06-10T04:59:37;17.20;99.90
31038;DHT22;17702;47.590;7.666;2023-06-10T05:02:04;17.20;99.90
31038;DHT22;17702;47.590;7.666;2023-06-10T05:04:30;17.30;99.90
31038;DHT22;17702;47.590;7.666;2023-06-10T05:06:56;17.30;99.90
31038;DHT22;17702;47.590;7.666;2023-06-10T05:09:21;17.40;99.90
31038;DHT22;17702;47.590;7.666;2023-06-10T05:11:47;17.50;99.90
31038;DHT22;17702;47.590;7.666;2023-06-10T05:14:13;17.50;99.90
31038;DHT22;17702;47.590;7.666;2023-06-10T05:16:38;17.60;99.90
31038;DHT22;17702;47.590;7.666;2023-06-10T05:19:04;17.70;99.90
31038;DHT22;17702;47.590;7.666;2023-06-10T05:21:30;17.80;99.90
31038;DHT22;17702;47.590;7.666;2023-06-10T05:23:55;17.90;99.90
31038;DHT22;17702;47.590;7.666;2023-06-10T05:26:21;18.00;99.90
31038;DHT22;17702;47.590;7.666;2023-06-10T05:28:47;18.00;99.90
31038;DHT22;17702;47.590;7.666;2023-06-10T05:31:13;18.10;99.90
31038;DHT22;17702;47.590;7.666;2023-06-10T05:33:39;18.10;99.90
31038;DHT22;17702;47.590;7.666;2023-06-10T05:36:05;18.20;99.90
31038;DHT22;17702;47.590;7.666;2023-06-10T05:38:31;18.30;99.90
31038;DHT22;17702;47.590;7.666;2023-06-10T05:40:56;18.40;99.90
31038;DHT22;17702;47.590;7.666;2023-06-10T05:43:22;18.40;99.90
31038;DHT22;17702;47.590;7.666;2023-06-10T05:45:48;18.50;99.90
31038;DHT22;17702;47.590;7.666;2023-06-10T05:48:13;18.60;99.90
31038;DHT22;17702;47.590;7.666;2023-06-10T05:50:39;18.70;99.90
31038;DHT22;17702;47.590;7.666;2023-06-10T05:53:07;18.80;99.90
31038;DHT22;17702;47.590;7.666;2023-06-10T05:55:43;18.90;99.90
31038;DHT22;17702;47.590;7.666;2023-06-10T05:58:09;19.10;99.90
31038;DHT22;17702;47.590;7.666;2023-06-10T06:00:35;19.20;99.90
31038;DHT22;17702;47.590;7.666;2023-06-10T06:03:00;19.30;99.90
31038;DHT22;17702;47.590;7.666;2023-06-10T06:05:26;19.40;99.90
31038;DHT22;17702;47.590;7.666;2023-06-10T06:07:52;19.50;99.90
31038;DHT22;17702;47.590;7.666;2023-06-10T06:10:18;19.60;99.90
31038;DHT22;17702;47.590;7.666;2023-06-10T06:12:44;19.70;99.90
31038;DHT22;17702;47.590;7.666;2023-06-10T06:15:10;19.90;99.90
31038;DHT22;17702;47.590;7.666;2023-06-10T06:17:36;20.00;99.90
31038;DHT22;17702;47.590;7.666;2023-06-10T06:20:03;20.20;99.90
31038;DHT22;17702;47.590;7.666;2023-06-10T06:22:29;20.30;99.90
31038;DHT22;17702;47.590;7.666;2023-06-10T06:24:54;20.50;99.90
31038;DHT22;17702;47.590;7.666;2023-06-10T06:27:20;20.60;99.90
31038;DHT22;17702;47.590;7.666;2023-06-10T06:29:46;20.60;99.90
31038;DHT22;17702;47.590;7.666;2023-06-10T06:32:12;20.80;99.90
31038;DHT22;17702;47.590;7.666;2023-06-10T06:34:38;21.00;99.90
31038;DHT22;17702;47.590;7.666;2023-06-10T06:37:03;21.10;99.90
31038;DHT22;17702;47.590;7.666;2023-06-10T06:39:29;21.20;99.90
31038;DHT22;17702;47.590;7.666;2023-06-10T06:41:55;21.30;99.90
31038;DHT22;17702;47.590;7.666;2023-06-10T06:44:20;21.50;99.90
31038;DHT22;17702;47.590;7.666;2023-06-10T06:46:46;21.60;99.90
31038;DHT22;17702;47.590;7.666;2023-06-10T06:49:12;21.80;99.90
31038;DHT22;17702;47.590;7.666;2023-06-10T06:51:37;21.80;99.80
31038;DHT22;17702;47.590;7.666;2023-06-10T06:54:03;22.00;99.30
31038;DHT22;17702;47.590;7.666;2023-06-10T06:56:31;22.10;98.70
31038;DHT22;17702;47.590;7.666;2023-06-10T06:58:56;22.10;97.90
31038;DHT22;17702;47.590;7.666;2023-06-10T07:01:22;22.20;97.60
31038;DHT22;17702;47.590;7.666;2023-06-10T07:03:48;22.30;98.20
31038;DHT22;17702;47.590;7.666;2023-06-10T07:06:13;22.40;98.30
31038;DHT22;17702;47.590;7.666;2023-06-10T07:08:39;22.50;97.50
31038;DHT22;17702;47.590;7.666;2023-06-10T07:11:04;22.60;96.60
31038;DHT22;17702;47.590;7.666;2023-06-10T07:13:30;22.60;96.80
31038;DHT22;17702;47.590;7.666;2023-06-10T07:15:56;22.70;96.70
31038;DHT22;17702;47.590;7.666;2023-06-10T07:18:21;22.80;95.80
31038;DHT22;17702;47.590;7.666;2023-06-10T07:20:47;22.90;96.60
31038;DHT22;17702;47.590;7.666;2023-06-10T07:23:12;23.00;97.20
31038;DHT22;17702;47.590;7.666;2023-06-10T07:25:38;23.20;96.20
31038;DHT22;17702;47.590;7.666;2023-06-10T07:28:04;23.40;96.30
31038;DHT22;17702;47.590;7.666;2023-06-10T07:30:29;23.60;96.50
31038;DHT22;17702;47.590;7.666;2023-06-10T07:32:55;23.70;94.20
31038;DHT22;17702;47.590;7.666;2023-06-10T07:35:21;23.80;93.90
31038;DHT22;17702;47.590;7.666;2023-06-10T07:37:47;24.00;95.50
31038;DHT22;17702;47.590;7.666;2023-06-10T07:40:12;24.00;94.90
31038;DHT22;17702;47.590;7.666;2023-06-10T07:42:38;24.10;96.90
31038;DHT22;17702;47.590;7.666;2023-06-10T07:45:04;24.20;97.10
31038;DHT22;17702;47.590;7.666;2023-06-10T07:47:34;24.20;96.00
31038;DHT22;17702;47.590;7.666;2023-06-10T07:50:00;24.30;95.00
31038;DHT22;17702;47.590;7.666;2023-06-10T07:52:25;24.20;93.90
31038;DHT22;17702;47.590;7.666;2023-06-10T07:54:51;24.20;92.70
31038;DHT22;17702;47.590;7.666;2023-06-10T07:57:17;24.30;95.20
31038;DHT22;17702;47.590;7.666;2023-06-10T07:59:43;24.40;91.70
31038;DHT22;17702;47.590;7.666;2023-06-10T08:02:09;24.40;91.60
31038;DHT22;17702;47.590;7.666;2023-06-10T08:04:35;24.30;91.90
31038;DHT22;17702;47.590;7.666;2023-06-10T08:07:01;24.30;93.80
31038;DHT22;17702;47.590;7.666;2023-06-10T08:09:27;24.40;91.90
31038;DHT22;17702;47.590;7.666;2023-06-10T08:11:53;24.50;91.80
31038;DHT22;17702;47.590;7.666;2023-06-10T08:14:19;24.60;91.40
31038;DHT22;17702;47.590;7.666;2023-06-10T08:16:44;24.70;94.00
31038;DHT22;17702;47.590;7.666;2023-06-10T08:19:10;24.70;91.20
31038;DHT22;17702;47.590;7.666;2023-06-10T08:21:36;24.90;90.90
31038;DHT22;17702;47.590;7.666;2023-06-10T08:24:09;25.00;90.70
31038;DHT22;17702;47.590;7.666;2023-06-10T08:26:34;25.20;92.40
31038;DHT22;17702;47.590;7.666;2023-06-10T08:29:00;25.30;91.10
31038;DHT22;17702;47.590;7.666;2023-06-10T08:31:26;25.50;90.80
31038;DHT22;17702;47.590;7.666;2023-06-10T08:33:51;25.80;88.40
31038;DHT22;17702;47.590;7.666;2023-06-10T08:36:17;25.90;86.90
31038;DHT22;17702;47.590;7.666;2023-06-10T08:38:43;26.00;84.20
31038;DHT22;17702;47.590;7.666;2023-06-10T08:41:09;26.10;83.30
31038;DHT22;17702;47.590;7.666;2023-06-10T08:44:03;26.10;85.10
31038;DHT22;17702;47.590;7.666;2023-06-10T08:46:29;26.20;80.50
31038;DHT22;17702;47.590;7.666;2023-06-10T08:48:58;26.30;80.40
31038;DHT22;17702;47.590;7.666;2023-06-10T08:51:27;26.30;76.40
31038;DHT22;17702;47.590;7.666;2023-06-10T08:54:08;26.30;75.30
31038;DHT22;17702;47.590;7.666;2023-06-10T08:56:39;26.20;73.40
31038;DHT22;17702;47.590;7.666;2023-06-10T08:59:05;26.20;75.40
31038;DHT22;17702;47.590;7.666;2023-06-10T09:01:31;26.30;78.40
31038;DHT22;17702;47.590;7.666;2023-06-10T09:03:59;26.40;75.30
31038;DHT22;17702;47.590;7.666;2023-06-10T09:06:25;26.70;75.90
31038;DHT22;17702;47.590;7.666;2023-06-10T09:08:50;26.80;72.90
31038;DHT22;17702;47.590;7.666;2023-06-10T09:11:17;27.10;75.40
31038;DHT22;17702;47.590;7.666;2023-06-10T09:13:43;27.20;69.00
31038;DHT22;17702;47.590;7.666;2023-06-10T09:16:09;27.30;72.40
31038;DHT22;17702;47.590;7.666;2023-06-10T09:18:37;27.40;71.90
31038;DHT22;17702;47.590;7.666;2023-06-10T09:21:03;27.60;69.20
31038;DHT22;17702;47.590;7.666;2023-06-10T09:23:29;27.80;71.30
31038;DHT22;17702;47.590;7.666;2023-06-10T09:25:58;28.00;68.40
31038;DHT22;17702;47.590;7.666;2023-06-10T09:28:24;28.10;66.40
31038;DHT22;17702;47.590;7.666;2023-06-10T09:30:49;28.20;68.80
31038;DHT22;17702;47.590;7.666;2023-06-10T09:33:16;28.40;64.10
31038;DHT22;17702;47.590;7.666;2023-06-10T09:35:46;28.40;66.70
31038;DHT22;17702;47.590;7.666;2023-06-10T09:38:12;28.50;64.30
31038;DHT22;17702;47.590;7.666;2023-06-10T09:40:51;28.50;68.90
31038;DHT22;17702;47.590;7.666;2023-06-10T09:43:17;28.80;67.20
31038;DHT22;17702;47.590;7.666;2023-06-10T09:45:43;28.90;66.50
31038;DHT22;17702;47.590;7.666;2023-06-10T09:48:09;29.00;64.80
31038;DHT22;17702;47.590;7.666;2023-06-10T09:50:42;29.10;60.60
31038;DHT22;17702;47.590;7.666;2023-06-10T09:53:09;29.00;59.90
31038;DHT22;17702;47.590;7.666;2023-06-10T09:55:37;28.90;61.30
31038;DHT22;17702;47.590;7.666;2023-06-10T09:58:03;28.90;63.40
31038;DHT22;17702;47.590;7.666;2023-06-10T10:00:32;29.10;62.30
31038;DHT22;17702;47.590;7.666;2023-06-10T10:02:58;29.30;60.40
31038;DHT22;17702;47.590;7.666;2023-06-10T10:05:24;29.30;58.80
31038;DHT22;17702;47.590;7.666;2023-06-10T10:07:50;29.30;59.30
31038;DHT22;17702;47.590;7.666;2023-06-10T10:10:20;29.30;58.90
31038;DHT22;17702;47.590;7.666;2023-06-10T10:12:48;29.30;59.00
31038;DHT22;17702;47.590;7.666;2023-06-10T10:15:16;29.30;57.40
31038;DHT22;17702;47.590;7.666;2023-06-10T10:17:51;29.30;56.40
31038;DHT22;17702;47.590;7.666;2023-06-10T10:20:20;29.30;57.00
31038;DHT22;17702;47.590;7.666;2023-06-10T10:22:47;29.40;58.00
31038;DHT22;17702;47.590;7.666;2023-06-10T10:25:17;29.60;59.30
31038;DHT22;17702;47.590;7.666;2023-06-10T10:27:55;29.80;58.70
31038;DHT22;17702;47.590;7.666;2023-06-10T10:30:22;29.70;54.90
31038;DHT22;17702;47.590;7.666;2023-06-10T10:33:04;29.60;54.10
31038;DHT22;17702;47.590;7.666;2023-06-10T10:35:32;29.50;54.80
31038;DHT22;17702;47.590;7.666;2023-06-10T10:37:58;29.40;54.00
31038;DHT22;17702;47.590;7.666;2023-06-10T10:40:25;29.50;55.60
31038;DHT22;17702;47.590;7.666;2023-06-10T10:42:55;29.60;54.30
31038;DHT22;17702;47.590;7.666;2023-06-10T10:45:21;29.70;54.20
31038;DHT22;17702;47.590;7.666;2023-06-10T10:47:52;29.90;55.10
31038;DHT22;17702;47.590;7.666;2023-06-10T10:50:19;30.10;53.00
31038;DHT22;17702;47.590;7.666;2023-06-10T10:53:00;30.10;53.20
31038;DHT22;17702;47.590;7.666;2023-06-10T10:55:27;30.00;48.80
31038;DHT22;17702;47.590;7.666;2023-06-10T10:57:59;29.90;53.90
31038;DHT22;17702;47.590;7.666;2023-06-10T11:05:48;29.80;54.90
31038;DHT22;17702;47.590;7.666;2023-06-10T11:08:15;29.60;53.80
31038;DHT22;17702;47.590;7.666;2023-06-10T11:10:51;29.50;53.70
31038;DHT22;17702;47.590;7.666;2023-06-10T11:13:19;29.30;52.30
31038;DHT22;17702;47.590;7.666;2023-06-10T11:15:49;29.10;53.70
31038;DHT22;17702;47.590;7.666;2023-06-10T11:18:21;29.00;53.60
31038;DHT22;17702;47.590;7.666;2023-06-10T11:31:25;28.20;58.70
31038;DHT22;17702;47.590;7.666;2023-06-10T11:36:24;27.90;58.00
31038;DHT22;17702;47.590;7.666;2023-06-10T11:38:57;27.90;58.40
31038;DHT22;17702;47.590;7.666;2023-06-10T11:41:27;27.80;57.40
31038;DHT22;17702;47.590;7.666;2023-06-10T11:43:53;27.80;57.80
31038;DHT22;17702;47.590;7.666;2023-06-10T11:46:21;27.90;57.80
31038;DHT22;17702;47.590;7.666;2023-06-10T11:48:52;27.80;57.10
31038;DHT22;17702;47.590;7.666;2023-06-10T11:51:18;27.90;56.30
31038;DHT22;17702;47.590;7.666;2023-06-10T11:53:46;28.00;55.80
31038;DHT22;17702;47.590;7.666;2023-06-10T11:56:11;28.20;56.80
31038;DHT22;17702;47.590;7.666;2023-06-10T11:58:38;28.40;56.30
31038;DHT22;17702;47.590;7.666;2023-06-10T12:01:06;28.70;57.30
31038;DHT22;17702;47.590;7.666;2023-06-10T12:03:38;29.00;56.60
31038;DHT22;17702;47.590;7.666;2023-06-10T12:06:05;28.90;55.00
31038;DHT22;17702;47.590;7.666;2023-06-10T12:08:34;28.80;55.70
31038;DHT22;17702;47.590;7.666;2023-06-10T12:11:06;28.60;57.20
31038;DHT22;17702;47.590;7.666;2023-06-10T12:13:32;28.40;59.10
31038;DHT22;17702;47.590;7.666;2023-06-10T12:16:08;28.20;58.00
31038;DHT22;17702;47.590;7.666;2023-06-10T12:18:34;28.00;59.00
31038;DHT22;17702;47.590;7.666;2023-06-10T12:20:59;28.00;61.50
31038;DHT22;17702;47.590;7.666;2023-06-10T12:23:25;28.20;57.50
31038;DHT22;17702;47.590;7.666;2023-06-10T12:25:55;28.40;58.00
31038;DHT22;17702;47.590;7.666;2023-06-10T12:28:25;28.60;57.00
31038;DHT22;17702;47.590;7.666;2023-06-10T12:30:51;28.80;56.80
31038;DHT22;17702;47.590;7.666;2023-06-10T12:33:21;29.10;55.90
31038;DHT22;17702;47.590;7.666;2023-06-10T12:35:53;29.30;55.40
31038;DHT22;17702;47.590;7.666;2023-06-10T12:38:23;29.50;56.20
31038;DHT22;17702;47.590;7.666;2023-06-10T12:40:50;29.60;57.70
31038;DHT22;17702;47.590;7.666;2023-06-10T12:43:20;29.70;53.50
31038;DHT22;17702;47.590;7.666;2023-06-10T12:45:45;29.80;56.20
31038;DHT22;17702;47.590;7.666;2023-06-10T12:50:41;30.00;53.70
31038;DHT22;17702;47.590;7.666;2023-06-10T12:53:07;30.10;57.10
31038;DHT22;17702;47.590;7.666;2023-06-10T12:55:33;30.30;54.50
31038;DHT22;17702;47.590;7.666;2023-06-10T12:58:00;30.40;52.70
31038;DHT22;17702;47.590;7.666;2023-06-10T13:00:27;30.50;53.40
31038;DHT22;17702;47.590;7.666;2023-06-10T13:02:55;30.50;53.30
31038;DHT22;17702;47.590;7.666;2023-06-10T13:05:21;30.50;51.90
31038;DHT22;17702;47.590;7.666;2023-06-10T13:07:47;30.60;52.90
31038;DHT22;17702;47.590;7.666;2023-06-10T13:10:14;30.40;51.80
31038;DHT22;17702;47.590;7.666;2023-06-10T13:12:40;30.10;52.70
31038;DHT22;17702;47.590;7.666;2023-06-10T13:15:06;29.80;54.10
31038;DHT22;17702;47.590;7.666;2023-06-10T13:17:32;29.50;54.50
31038;DHT22;17702;47.590;7.666;2023-06-10T13:19:59;29.20;54.80
31038;DHT22;17702;47.590;7.666;2023-06-10T13:22:26;29.00;56.00
31038;DHT22;17702;47.590;7.666;2023-06-10T13:24:52;28.80;56.40
31038;DHT22;17702;47.590;7.666;2023-06-10T13:27:17;28.60;57.00
31038;DHT22;17702;47.590;7.666;2023-06-10T13:29:43;28.70;57.00
31038;DHT22;17702;47.590;7.666;2023-06-10T13:32:09;28.80;57.40
31038;DHT22;17702;47.590;7.666;2023-06-10T13:34:35;28.80;56.30
31038;DHT22;17702;47.590;7.666;2023-06-10T13:37:01;29.00;56.90
31038;DHT22;17702;47.590;7.666;2023-06-10T13:39:29;29.10;56.40
31038;DHT22;17702;47.590;7.666;2023-06-10T13:41:54;29.20;56.00
31038;DHT22;17702;47.590;7.666;2023-06-10T13:44:20;29.30;54.00
31038;DHT22;17702;47.590;7.666;2023-06-10T13:46:46;29.30;55.80
31038;DHT22;17702;47.590;7.666;2023-06-10T13:49:11;29.40;55.60
31038;DHT22;17702;47.590;7.666;2023-06-10T13:51:37;29.40;54.60
31038;DHT22;17702;47.590;7.666;2023-06-10T13:54:02;29.40;54.70
31038;DHT22;17702;47.590;7.666;2023-06-10T13:56:28;29.50;55.70
31038;DHT22;17702;47.590;7.666;2023-06-10T13:58:54;29.50;55.00
31038;DHT22;17702;47.590;7.666;2023-06-10T14:01:20;29.50;52.10
31038;DHT22;17702;47.590;7.666;2023-06-10T14:03:45;29.40;51.80
31038;DHT22;17702;47.590;7.666;2023-06-10T14:06:11;29.30;53.10
31038;DHT22;17702;47.590;7.666;2023-06-10T14:08:40;29.30;53.40
31038;DHT22;17702;47.590;7.666;2023-06-10T14:11:06;29.40;54.70
31038;DHT22;17702;47.590;7.666;2023-06-10T14:13:31;29.50;51.50
31038;DHT22;17702;47.590;7.666;2023-06-10T14:15:59;29.50;51.20
31038;DHT22;17702;47.590;7.666;2023-06-10T14:18:28;29.60;54.30
31038;DHT22;17702;47.590;7.666;2023-06-10T14:20:53;29.60;54.50
31038;DHT22;17702;47.590;7.666;2023-06-10T14:23:19;29.60;55.00
31038;DHT22;17702;47.590;7.666;2023-06-10T14:25:44;29.60;53.30
31038;DHT22;17702;47.590;7.666;2023-06-10T14:28:10;29.60;53.60
31038;DHT22;17702;47.590;7.666;2023-06-10T14:30:35;29.60;53.90
31038;DHT22;17702;47.590;7.666;2023-06-10T14:33:01;29.50;52.80
31038;DHT22;17702;47.590;7.666;2023-06-10T14:35:27;29.60;53.30
31038;DHT22;17702;47.590;7.666;2023-06-10T14:37:52;29.60;54.10
31038;DHT22;17702;47.590;7.666;2023-06-10T14:40:18;29.60;53.60
31038;DHT22;17702;47.590;7.666;2023-06-10T14:42:43;29.60;53.70
31038;DHT22;17702;47.590;7.666;2023-06-10T14:45:09;29.50;54.10
31038;DHT22;17702;47.590;7.666;2023-06-10T14:47:35;29.30;53.80
31038;DHT22;17702;47.590;7.666;2023-06-10T14:50:01;29.20;53.10
31038;DHT22;17702;47.590;7.666;2023-06-10T14:52:26;29.10;52.90
31038;DHT22;17702;47.590;7.666;2023-06-10T14:54:52;29.10;54.30
31038;DHT22;17702;47.590;7.666;2023-06-10T14:57:17;29.00;53.50
31038;DHT22;17702;47.590;7.666;2023-06-10T14:59:43;28.90;52.70
31038;DHT22;17702;47.590;7.666;2023-06-10T15:02:09;28.80;55.30
31038;DHT22;17702;47.590;7.666;2023-06-10T15:04:34;28.70;54.10
31038;DHT22;17702;47.590;7.666;2023-06-10T15:07:00;28.60;55.30
31038;DHT22;17702;47.590;7.666;2023-06-10T15:09:26;28.70;54.10
31038;DHT22;17702;47.590;7.666;2023-06-10T15:11:51;28.80;54.80
31038;DHT22;17702;47.590;7.666;2023-06-10T15:14:17;28.80;54.10
31038;DHT22;17702;47.590;7.666;2023-06-10T15:16:42;28.90;52.50
31038;DHT22;17702;47.590;7.666;2023-06-10T15:19:08;28.90;53.90
31038;DHT22;17702;47.590;7.666;2023-06-10T15:21:35;28.80;54.30
31038;DHT22;17702;47.590;7.666;2023-06-10T15:24:02;28.70;53.80
31038;DHT22;17702;47.590;7.666;2023-06-10T15:26:27;28.70;54.90
31038;DHT22;17702;47.590;7.666;2023-06-10T15:28:53;28.60;55.60
31038;DHT22;17702;47.590;7.666;2023-06-10T15:31:19;28.70;55.40
31038;DHT22;17702;47.590;7.666;2023-06-10T15:33:44;28.70;54.00
31038;DHT22;17702;47.590;7.666;2023-06-10T15:36:10;28.70;54.80
31038;DHT22;17702;47.590;7.666;2023-06-10T15:38:36;28.70;54.40
31038;DHT22;17702;47.590;7.666;2023-06-10T15:41:01;28.70;53.50
31038;DHT22;17702;47.590;7.666;2023-06-10T15:43:27;28.60;53.10
31038;DHT22;17702;47.590;7.666;2023-06-10T15:45:52;28.50;54.10
31038;DHT22;17702;47.590;7.666;2023-06-10T15:48:18;28.50;54.70
31038;DHT22;17702;47.590;7.666;2023-06-10T15:50:43;28.40;55.00
31038;DHT22;17702;47.590;7.666;2023-06-10T15:53:10;28.30;55.10